57C

East Troy Municipal Airport

East Troy, Wisconsin, USA
METAR K57C 170455Z AUTO 30007KT 10SM SCT021 SCT043 BKN060 00/M03 A3013 RMK AO2 T10011026
Observed Flight Rules
Nov-17 @ 04:55 UTC (26 minutes ago) Visual Flight Rules
Wind Visibility Clouds
300° at 7 knots 10 miles
  • Scattered at 2,100' AGL
  • Scattered at 4,300' AGL
  • Broken at 6,000' AGL
Temperatures Readings
Current -0°C / 32°F
Dewpoint -3°C / 27°F
Humidity 80%
Altimeter 30.13" Hg
Pressure 1020 hPa
Elevation 262
METAR K57C 170455Z AUTO 30007KT 10SM SCT021 SCT043 BKN060 00/M03 A3013 RMK AO2 T10011026
Observed Flight Rules
Nov-17 @ 04:55 UTC
(26 minutes ago)
VFR
Wind Visibility
300° at 7 knots 10 miles
Clouds
  • Scattered at 2,100' AGL
  • Scattered at 4,300' AGL
  • Broken at 6,000' AGL
Temperature Dewpoint
-0°C / 32°F -3°C / 27°F
Humidity Altimeter Pressure
80% 30.13" Hg 1020 hPa